LELN/LEN METAR and TAF weather

Enter ICAO airport designator
Station Type Date Time Source
LELN METAR 2024/07/15 21:00 UTC NOAA

LELN 152100Z AUTO 29008KT 260V320 CAVOK 16/09 Q1019


Station Type Date Time Source
LELN Decoded METAR 2024/07/15 21:00 UTC NOAA

Leon / Virgen Del Camino, Spain (LELN) 42-35N 005-39W 914M
Jul 15, 2024 - 05:00 PM EDT / 2024.07.15 2100 UTC
Wind: from the WNW (290 degrees) at 9 MPH (8 KT) (direction variable):0
Visibility: greater than 7 mile(s):0
Temperature: 60 F (16 C)
Dew Point: 48 F (9 C)
Relative Humidity: 63%
Pressure (altimeter): 30.09 in. Hg (1019 hPa)
ob: LELN 152100Z AUTO 29008KT 260V320 CAVOK 16/09 Q1019
cycle: 21

Station Type Date Time Source
LELN TAF 2024/07/15 21:27 UTC NOAA